sensor_id;sensor_type;location;lat;lon;timestamp;P1;durP1;ratioP1;P2;durP2;ratioP2
51467;SDS011;37545;45.302;-122.946;2023-04-04T00:01:57;1.98;;;0.70;;
51467;SDS011;37545;45.302;-122.946;2023-04-04T00:04:26;1.08;;;0.60;;
51467;SDS011;37545;45.302;-122.946;2023-04-04T00:06:55;0.70;;;0.40;;
51467;SDS011;37545;45.302;-122.946;2023-04-04T00:09:23;0.60;;;0.40;;
51467;SDS011;37545;45.302;-122.946;2023-04-04T00:11:53;1.10;;;0.30;;
51467;SDS011;37545;45.302;-122.946;2023-04-04T00:14:22;0.38;;;0.30;;
51467;SDS011;37545;45.302;-122.946;2023-04-04T00:16:51;1.00;;;0.40;;
51467;SDS011;37545;45.302;-122.946;2023-04-04T00:19:19;0.95;;;0.38;;
51467;SDS011;37545;45.302;-122.946;2023-04-04T00:21:49;0.82;;;0.63;;
51467;SDS011;37545;45.302;-122.946;2023-04-04T00:24:17;1.00;;;0.38;;
51467;SDS011;37545;45.302;-122.946;2023-04-04T00:26:46;1.83;;;0.50;;
51467;SDS011;37545;45.302;-122.946;2023-04-04T00:29:16;2.72;;;0.65;;
51467;SDS011;37545;45.302;-122.946;2023-04-04T00:31:52;2.47;;;0.50;;
51467;SDS011;37545;45.302;-122.946;2023-04-04T00:34:28;0.82;;;0.50;;
51467;SDS011;37545;45.302;-122.946;2023-04-04T00:36:56;1.35;;;0.60;;
51467;SDS011;37545;45.302;-122.946;2023-04-04T00:39:25;1.40;;;0.50;;
51467;SDS011;37545;45.302;-122.946;2023-04-04T00:41:53;1.55;;;0.32;;
51467;SDS011;37545;45.302;-122.946;2023-04-04T00:44:23;3.22;;;0.50;;
51467;SDS011;37545;45.302;-122.946;2023-04-04T00:46:52;2.78;;;0.50;;
51467;SDS011;37545;45.302;-122.946;2023-04-04T00:49:21;0.57;;;0.47;;
51467;SDS011;37545;45.302;-122.946;2023-04-04T00:51:49;1.02;;;0.35;;
51467;SDS011;37545;45.302;-122.946;2023-04-04T00:54:19;3.05;;;0.38;;
51467;SDS011;37545;45.302;-122.946;2023-04-04T00:56:47;2.97;;;0.32;;
51467;SDS011;37545;45.302;-122.946;2023-04-04T00:59:19;3.22;;;0.57;;
51467;SDS011;37545;45.302;-122.946;2023-04-04T01:01:50;0.88;;;0.40;;
51467;SDS011;37545;45.302;-122.946;2023-04-04T01:04:18;2.58;;;0.90;;
51467;SDS011;37545;45.302;-122.946;2023-04-04T01:06:47;1.85;;;0.45;;
51467;SDS011;37545;45.302;-122.946;2023-04-04T01:09:16;1.00;;;0.45;;
51467;SDS011;37545;45.302;-122.946;2023-04-04T01:11:45;0.55;;;0.38;;
51467;SDS011;37545;45.302;-122.946;2023-04-04T01:14:14;1.13;;;0.68;;
51467;SDS011;37545;45.302;-122.946;2023-04-04T01:16:43;2.50;;;0.20;;
51467;SDS011;37545;45.302;-122.946;2023-04-04T01:19:16;1.33;;;0.28;;
51467;SDS011;37545;45.302;-122.946;2023-04-04T01:21:50;1.70;;;0.40;;
51467;SDS011;37545;45.302;-122.946;2023-04-04T01:24:20;0.98;;;0.40;;
51467;SDS011;37545;45.302;-122.946;2023-04-04T01:26:51;1.50;;;0.60;;
51467;SDS011;37545;45.302;-122.946;2023-04-04T01:29:20;1.35;;;0.45;;
51467;SDS011;37545;45.302;-122.946;2023-04-04T01:31:50;1.00;;;0.73;;
51467;SDS011;37545;45.302;-122.946;2023-04-04T01:34:23;1.38;;;0.70;;
51467;SDS011;37545;45.302;-122.946;2023-04-04T01:37:00;3.30;;;0.20;;
51467;SDS011;37545;45.302;-122.946;2023-04-04T01:39:34;1.88;;;0.60;;
51467;SDS011;37545;45.302;-122.946;2023-04-04T01:42:11;2.70;;;0.82;;
51467;SDS011;37545;45.302;-122.946;2023-04-04T01:44:40;2.17;;;0.50;;
51467;SDS011;37545;45.302;-122.946;2023-04-04T01:47:11;0.63;;;0.35;;
51467;SDS011;37545;45.302;-122.946;2023-04-04T01:49:39;2.38;;;0.80;;
51467;SDS011;37545;45.302;-122.946;2023-04-04T01:52:09;2.00;;;1.00;;
51467;SDS011;37545;45.302;-122.946;2023-04-04T01:54:37;2.50;;;0.55;;
51467;SDS011;37545;45.302;-122.946;2023-04-04T01:57:06;0.95;;;0.60;;
51467;SDS011;37545;45.302;-122.946;2023-04-04T01:59:36;5.50;;;0.70;;
51467;SDS011;37545;45.302;-122.946;2023-04-04T02:02:04;0.90;;;0.50;;
51467;SDS011;37545;45.302;-122.946;2023-04-04T02:04:33;1.50;;;0.65;;
51467;SDS011;37545;45.302;-122.946;2023-04-04T02:07:02;4.35;;;0.63;;
51467;SDS011;37545;45.302;-122.946;2023-04-04T02:09:31;2.85;;;0.28;;
51467;SDS011;37545;45.302;-122.946;2023-04-04T02:11:59;3.75;;;0.50;;
51467;SDS011;37545;45.302;-122.946;2023-04-04T02:14:28;0.63;;;0.40;;
51467;SDS011;37545;45.302;-122.946;2023-04-04T02:16:58;3.30;;;1.35;;
51467;SDS011;37545;45.302;-122.946;2023-04-04T02:19:28;2.05;;;0.52;;
51467;SDS011;37545;45.302;-122.946;2023-04-04T02:21:56;0.90;;;0.50;;
51467;SDS011;37545;45.302;-122.946;2023-04-04T02:24:25;2.05;;;0.93;;
51467;SDS011;37545;45.302;-122.946;2023-04-04T02:26:54;1.98;;;0.82;;
51467;SDS011;37545;45.302;-122.946;2023-04-04T02:29:22;3.83;;;0.57;;
51467;SDS011;37545;45.302;-122.946;2023-04-04T02:31:51;0.60;;;0.40;;
51467;SDS011;37545;45.302;-122.946;2023-04-04T02:34:21;2.83;;;0.80;;
51467;SDS011;37545;45.302;-122.946;2023-04-04T02:36:49;2.33;;;1.15;;
51467;SDS011;37545;45.302;-122.946;2023-04-04T02:39:18;2.05;;;0.82;;
51467;SDS011;37545;45.302;-122.946;2023-04-04T02:41:47;0.77;;;0.45;;
51467;SDS011;37545;45.302;-122.946;2023-04-04T02:44:15;5.88;;;0.70;;
51467;SDS011;37545;45.302;-122.946;2023-04-04T02:46:44;1.95;;;0.50;;
51467;SDS011;37545;45.302;-122.946;2023-04-04T02:49:13;3.88;;;0.75;;
51467;SDS011;37545;45.302;-122.946;2023-04-04T02:51:43;1.20;;;0.30;;
51467;SDS011;37545;45.302;-122.946;2023-04-04T02:54:12;1.42;;;0.38;;
51467;SDS011;37545;45.302;-122.946;2023-04-04T02:56:40;0.63;;;0.30;;
51467;SDS011;37545;45.302;-122.946;2023-04-04T02:59:09;0.68;;;0.57;;
51467;SDS011;37545;45.302;-122.946;2023-04-04T03:01:37;3.83;;;1.40;;
51467;SDS011;37545;45.302;-122.946;2023-04-04T03:04:07;1.55;;;0.55;;
51467;SDS011;37545;45.302;-122.946;2023-04-04T03:06:36;7.65;;;2.08;;
51467;SDS011;37545;45.302;-122.946;2023-04-04T03:09:06;6.40;;;1.95;;
51467;SDS011;37545;45.302;-122.946;2023-04-04T03:11:35;35.72;;;9.55;;
51467;SDS011;37545;45.302;-122.946;2023-04-04T03:14:04;14.50;;;4.50;;
51467;SDS011;37545;45.302;-122.946;2023-04-04T03:16:32;21.10;;;6.50;;
51467;SDS011;37545;45.302;-122.946;2023-04-04T03:19:01;19.48;;;7.03;;
51467;SDS011;37545;45.302;-122.946;2023-04-04T03:21:30;4.18;;;1.30;;
51467;SDS011;37545;45.302;-122.946;2023-04-04T03:23:58;4.50;;;1.90;;
51467;SDS011;37545;45.302;-122.946;2023-04-04T03:26:29;5.05;;;0.77;;
51467;SDS011;37545;45.302;-122.946;2023-04-04T03:28:57;4.32;;;0.85;;
51467;SDS011;37545;45.302;-122.946;2023-04-04T03:31:32;2.42;;;0.50;;
51467;SDS011;37545;45.302;-122.946;2023-04-04T03:34:00;2.72;;;0.70;;
51467;SDS011;37545;45.302;-122.946;2023-04-04T03:36:29;3.60;;;0.70;;
51467;SDS011;37545;45.302;-122.946;2023-04-04T03:39:04;2.65;;;0.38;;
51467;SDS011;37545;45.302;-122.946;2023-04-04T03:41:34;4.68;;;0.63;;
51467;SDS011;37545;45.302;-122.946;2023-04-04T03:44:02;0.30;;;0.28;;
51467;SDS011;37545;45.302;-122.946;2023-04-04T03:46:31;1.48;;;0.40;;
51467;SDS011;37545;45.302;-122.946;2023-04-04T03:49:00;0.98;;;0.47;;
51467;SDS011;37545;45.302;-122.946;2023-04-04T03:51:29;1.15;;;0.50;;
51467;SDS011;37545;45.302;-122.946;2023-04-04T03:53:57;1.83;;;0.50;;
51467;SDS011;37545;45.302;-122.946;2023-04-04T03:56:26;1.63;;;0.47;;
51467;SDS011;37545;45.302;-122.946;2023-04-04T03:58:56;4.68;;;0.73;;
51467;SDS011;37545;45.302;-122.946;2023-04-04T04:01:24;4.43;;;0.77;;
51467;SDS011;37545;45.302;-122.946;2023-04-04T04:03:53;2.20;;;0.93;;
51467;SDS011;37545;45.302;-122.946;2023-04-04T04:06:22;6.10;;;1.73;;
51467;SDS011;37545;45.302;-122.946;2023-04-04T04:08:50;4.93;;;1.38;;
51467;SDS011;37545;45.302;-122.946;2023-04-04T04:11:20;3.65;;;1.00;;
51467;SDS011;37545;45.302;-122.946;2023-04-04T04:13:49;1.60;;;1.30;;
51467;SDS011;37545;45.302;-122.946;2023-04-04T04:16:19;2.95;;;1.27;;
51467;SDS011;37545;45.302;-122.946;2023-04-04T04:18:48;3.83;;;1.63;;
51467;SDS011;37545;45.302;-122.946;2023-04-04T04:21:16;3.92;;;0.82;;
51467;SDS011;37545;45.302;-122.946;2023-04-04T04:23:45;5.80;;;1.48;;
51467;SDS011;37545;45.302;-122.946;2023-04-04T04:26:13;6.63;;;2.97;;
51467;SDS011;37545;45.302;-122.946;2023-04-04T04:28:42;21.30;;;6.63;;
51467;SDS011;37545;45.302;-122.946;2023-04-04T04:31:12;20.90;;;5.95;;
51467;SDS011;37545;45.302;-122.946;2023-04-04T04:33:42;17.80;;;4.93;;
51467;SDS011;37545;45.302;-122.946;2023-04-04T04:36:11;7.28;;;2.72;;
51467;SDS011;37545;45.302;-122.946;2023-04-04T04:38:40;4.00;;;1.60;;
51467;SDS011;37545;45.302;-122.946;2023-04-04T04:41:09;8.43;;;1.40;;
51467;SDS011;37545;45.302;-122.946;2023-04-04T04:43:37;7.10;;;1.23;;
51467;SDS011;37545;45.302;-122.946;2023-04-04T04:46:06;3.35;;;1.25;;
51467;SDS011;37545;45.302;-122.946;2023-04-04T04:48:34;7.75;;;1.70;;
51467;SDS011;37545;45.302;-122.946;2023-04-04T04:51:05;3.65;;;1.80;;
51467;SDS011;37545;45.302;-122.946;2023-04-04T04:53:33;4.35;;;1.42;;
51467;SDS011;37545;45.302;-122.946;2023-04-04T04:56:02;7.95;;;1.35;;
51467;SDS011;37545;45.302;-122.946;2023-04-04T04:58:30;4.90;;;0.80;;
51467;SDS011;37545;45.302;-122.946;2023-04-04T05:00:59;3.15;;;0.77;;
51467;SDS011;37545;45.302;-122.946;2023-04-04T05:03:28;2.17;;;0.90;;
51467;SDS011;37545;45.302;-122.946;2023-04-04T05:05:56;1.13;;;0.90;;
51467;SDS011;37545;45.302;-122.946;2023-04-04T05:08:26;3.38;;;1.10;;
51467;SDS011;37545;45.302;-122.946;2023-04-04T05:10:55;3.88;;;0.73;;
51467;SDS011;37545;45.302;-122.946;2023-04-04T05:13:24;4.28;;;0.77;;
51467;SDS011;37545;45.302;-122.946;2023-04-04T05:15:52;2.03;;;0.88;;
51467;SDS011;37545;45.302;-122.946;2023-04-04T05:18:21;3.95;;;0.85;;
51467;SDS011;37545;45.302;-122.946;2023-04-04T05:20:51;3.10;;;0.98;;
51467;SDS011;37545;45.302;-122.946;2023-04-04T05:23:20;6.30;;;1.77;;
51467;SDS011;37545;45.302;-122.946;2023-04-04T05:25:50;6.63;;;1.45;;
51467;SDS011;37545;45.302;-122.946;2023-04-04T05:28:19;3.78;;;1.20;;
51467;SDS011;37545;45.302;-122.946;2023-04-04T05:30:48;1.45;;;0.80;;
51467;SDS011;37545;45.302;-122.946;2023-04-04T05:33:16;4.15;;;0.65;;
51467;SDS011;37545;45.302;-122.946;2023-04-04T05:35:45;1.60;;;0.80;;
51467;SDS011;37545;45.302;-122.946;2023-04-04T05:38:13;3.90;;;1.15;;
51467;SDS011;37545;45.302;-122.946;2023-04-04T05:40:42;1.08;;;0.88;;
51467;SDS011;37545;45.302;-122.946;2023-04-04T05:43:13;1.80;;;0.77;;
51467;SDS011;37545;45.302;-122.946;2023-04-04T05:45:41;4.25;;;1.15;;
51467;SDS011;37545;45.302;-122.946;2023-04-04T05:48:10;3.85;;;1.25;;
51467;SDS011;37545;45.302;-122.946;2023-04-04T05:50:38;2.80;;;1.17;;
51467;SDS011;37545;45.302;-122.946;2023-04-04T05:53:07;5.70;;;0.75;;
51467;SDS011;37545;45.302;-122.946;2023-04-04T05:55:35;4.78;;;0.95;;
51467;SDS011;37545;45.302;-122.946;2023-04-04T05:58:04;2.50;;;0.98;;
51467;SDS011;37545;45.302;-122.946;2023-04-04T06:00:34;1.33;;;0.57;;
51467;SDS011;37545;45.302;-122.946;2023-04-04T06:03:03;3.00;;;0.70;;
51467;SDS011;37545;45.302;-122.946;2023-04-04T06:05:32;1.23;;;0.73;;
51467;SDS011;37545;45.302;-122.946;2023-04-04T06:08:00;4.35;;;1.35;;
51467;SDS011;37545;45.302;-122.946;2023-04-04T06:10:29;2.28;;;0.55;;
51467;SDS011;37545;45.302;-122.946;2023-04-04T06:12:57;2.30;;;0.80;;
51467;SDS011;37545;45.302;-122.946;2023-04-04T06:15:26;1.48;;;0.50;;
51467;SDS011;37545;45.302;-122.946;2023-04-04T06:17:56;1.52;;;0.80;;
51467;SDS011;37545;45.302;-122.946;2023-04-04T06:20:24;6.53;;;1.40;;
51467;SDS011;37545;45.302;-122.946;2023-04-04T06:22:53;4.63;;;1.30;;
51467;SDS011;37545;45.302;-122.946;2023-04-04T06:25:21;3.75;;;1.30;;
51467;SDS011;37545;45.302;-122.946;2023-04-04T06:27:51;2.75;;;0.95;;
51467;SDS011;37545;45.302;-122.946;2023-04-04T06:30:20;3.58;;;1.33;;
51467;SDS011;37545;45.302;-122.946;2023-04-04T06:32:48;1.15;;;0.82;;
51467;SDS011;37545;45.302;-122.946;2023-04-04T06:35:18;3.30;;;0.95;;
51467;SDS011;37545;45.302;-122.946;2023-04-04T06:37:51;2.50;;;0.85;;
51467;SDS011;37545;45.302;-122.946;2023-04-04T06:40:21;10.93;;;1.38;;
51467;SDS011;37545;45.302;-122.946;2023-04-04T06:42:50;3.45;;;1.10;;
51467;SDS011;37545;45.302;-122.946;2023-04-04T06:45:22;4.65;;;1.17;;
51467;SDS011;37545;45.302;-122.946;2023-04-04T06:47:52;4.63;;;1.20;;
51467;SDS011;37545;45.302;-122.946;2023-04-04T06:50:22;2.88;;;0.98;;
51467;SDS011;37545;45.302;-122.946;2023-04-04T06:52:51;1.75;;;0.85;;
51467;SDS011;37545;45.302;-122.946;2023-04-04T06:55:21;6.32;;;0.80;;
51467;SDS011;37545;45.302;-122.946;2023-04-04T06:57:50;3.05;;;0.88;;
51467;SDS011;37545;45.302;-122.946;2023-04-04T07:00:19;1.90;;;1.08;;
51467;SDS011;37545;45.302;-122.946;2023-04-04T07:02:48;0.57;;;0.40;;
51467;SDS011;37545;45.302;-122.946;2023-04-04T07:05:16;1.05;;;0.70;;
51467;SDS011;37545;45.302;-122.946;2023-04-04T07:07:46;0.77;;;0.68;;
51467;SDS011;37545;45.302;-122.946;2023-04-04T07:10:19;3.15;;;0.93;;
51467;SDS011;37545;45.302;-122.946;2023-04-04T07:12:47;1.75;;;0.60;;
51467;SDS011;37545;45.302;-122.946;2023-04-04T07:15:16;2.67;;;0.73;;
51467;SDS011;37545;45.302;-122.946;2023-04-04T07:17:44;3.67;;;0.80;;
51467;SDS011;37545;45.302;-122.946;2023-04-04T07:20:13;5.80;;;1.23;;
51467;SDS011;37545;45.302;-122.946;2023-04-04T07:22:41;2.85;;;1.05;;
51467;SDS011;37545;45.302;-122.946;2023-04-04T07:25:12;3.33;;;0.77;;
51467;SDS011;37545;45.302;-122.946;2023-04-04T07:27:41;3.38;;;0.70;;
51467;SDS011;37545;45.302;-122.946;2023-04-04T07:30:10;1.20;;;0.45;;
51467;SDS011;37545;45.302;-122.946;2023-04-04T07:32:39;3.45;;;1.13;;
51467;SDS011;37545;45.302;-122.946;2023-04-04T07:35:08;1.95;;;0.90;;
51467;SDS011;37545;45.302;-122.946;2023-04-04T07:37:36;1.00;;;0.57;;
51467;SDS011;37545;45.302;-122.946;2023-04-04T07:40:06;5.30;;;0.82;;
51467;SDS011;37545;45.302;-122.946;2023-04-04T07:42:36;6.72;;;0.98;;
51467;SDS011;37545;45.302;-122.946;2023-04-04T07:45:11;1.30;;;0.85;;
51467;SDS011;37545;45.302;-122.946;2023-04-04T07:47:41;2.00;;;0.63;;
51467;SDS011;37545;45.302;-122.946;2023-04-04T07:50:10;2.55;;;0.70;;
51467;SDS011;37545;45.302;-122.946;2023-04-04T07:52:40;2.10;;;1.08;;
51467;SDS011;37545;45.302;-122.946;2023-04-04T07:55:08;1.45;;;0.45;;
51467;SDS011;37545;45.302;-122.946;2023-04-04T07:57:38;1.30;;;0.60;;
51467;SDS011;37545;45.302;-122.946;2023-04-04T08:00:07;1.52;;;0.68;;
51467;SDS011;37545;45.302;-122.946;2023-04-04T08:02:37;1.73;;;0.70;;
51467;SDS011;37545;45.302;-122.946;2023-04-04T08:05:06;2.60;;;0.68;;
51467;SDS011;37545;45.302;-122.946;2023-04-04T08:07:35;2.17;;;0.70;;
51467;SDS011;37545;45.302;-122.946;2023-04-04T08:10:04;6.18;;;0.55;;
51467;SDS011;37545;45.302;-122.946;2023-04-04T08:12:34;2.85;;;0.93;;
51467;SDS011;37545;45.302;-122.946;2023-04-04T08:15:05;1.70;;;0.55;;
51467;SDS011;37545;45.302;-122.946;2023-04-04T08:17:34;1.60;;;0.75;;
51467;SDS011;37545;45.302;-122.946;2023-04-04T08:20:04;1.05;;;0.50;;
51467;SDS011;37545;45.302;-122.946;2023-04-04T08:22:33;3.90;;;1.00;;
51467;SDS011;37545;45.302;-122.946;2023-04-04T08:25:02;1.02;;;0.70;;
51467;SDS011;37545;45.302;-122.946;2023-04-04T08:27:30;4.47;;;0.60;;
51467;SDS011;37545;45.302;-122.946;2023-04-04T08:29:59;0.57;;;0.35;;
51467;SDS011;37545;45.302;-122.946;2023-04-04T08:32:30;7.72;;;0.75;;
51467;SDS011;37545;45.302;-122.946;2023-04-04T08:34:59;1.60;;;0.55;;
51467;SDS011;37545;45.302;-122.946;2023-04-04T08:37:28;3.08;;;0.57;;
51467;SDS011;37545;45.302;-122.946;2023-04-04T08:39:56;4.43;;;0.57;;
51467;SDS011;37545;45.302;-122.946;2023-04-04T08:42:25;1.00;;;0.50;;
51467;SDS011;37545;45.302;-122.946;2023-04-04T08:44:55;2.45;;;0.68;;
51467;SDS011;37545;45.302;-122.946;2023-04-04T08:47:26;0.73;;;0.60;;
51467;SDS011;37545;45.302;-122.946;2023-04-04T08:50:00;1.77;;;0.73;;
51467;SDS011;37545;45.302;-122.946;2023-04-04T08:52:31;1.10;;;0.73;;
51467;SDS011;37545;45.302;-122.946;2023-04-04T08:55:01;1.02;;;0.40;;
51467;SDS011;37545;45.302;-122.946;2023-04-04T08:57:32;1.58;;;0.70;;
51467;SDS011;37545;45.302;-122.946;2023-04-04T09:00:02;2.30;;;0.68;;
51467;SDS011;37545;45.302;-122.946;2023-04-04T09:02:33;3.40;;;0.55;;
51467;SDS011;37545;45.302;-122.946;2023-04-04T09:05:06;1.42;;;0.50;;
51467;SDS011;37545;45.302;-122.946;2023-04-04T09:07:35;1.85;;;0.50;;
51467;SDS011;37545;45.302;-122.946;2023-04-04T09:10:04;6.90;;;1.30;;
51467;SDS011;37545;45.302;-122.946;2023-04-04T09:12:36;2.80;;;0.50;;
51467;SDS011;37545;45.302;-122.946;2023-04-04T09:15:08;1.95;;;0.20;;
51467;SDS011;37545;45.302;-122.946;2023-04-04T09:17:38;1.75;;;0.65;;
51467;SDS011;37545;45.302;-122.946;2023-04-04T09:23:07;2.35;;;0.88;;
51467;SDS011;37545;45.302;-122.946;2023-04-04T09:25:37;7.53;;;1.10;;
51467;SDS011;37545;45.302;-122.946;2023-04-04T09:28:11;0.85;;;0.45;;
51467;SDS011;37545;45.302;-122.946;2023-04-04T09:30:41;3.05;;;0.47;;
51467;SDS011;37545;45.302;-122.946;2023-04-04T09:33:11;0.57;;;0.25;;
51467;SDS011;37545;45.302;-122.946;2023-04-04T09:35:44;4.00;;;0.43;;
51467;SDS011;37545;45.302;-122.946;2023-04-04T09:38:17;0.30;;;0.20;;
51467;SDS011;37545;45.302;-122.946;2023-04-04T09:40:47;0.80;;;0.35;;
51467;SDS011;37545;45.302;-122.946;2023-04-04T09:43:17;0.57;;;0.40;;
51467;SDS011;37545;45.302;-122.946;2023-04-04T09:45:46;0.45;;;0.28;;
51467;SDS011;37545;45.302;-122.946;2023-04-04T09:48:21;1.10;;;0.35;;
51467;SDS011;37545;45.302;-122.946;2023-04-04T09:50:58;3.42;;;0.75;;
51467;SDS011;37545;45.302;-122.946;2023-04-04T09:53:30;0.30;;;0.20;;
51467;SDS011;37545;45.302;-122.946;2023-04-04T09:56:02;1.45;;;0.57;;
51467;SDS011;37545;45.302;-122.946;2023-04-04T09:58:32;3.75;;;0.88;;
51467;SDS011;37545;45.302;-122.946;2023-04-04T10:01:02;2.75;;;0.32;;
51467;SDS011;37545;45.302;-122.946;2023-04-04T10:03:35;2.22;;;0.65;;
51467;SDS011;37545;45.302;-122.946;2023-04-04T10:06:06;2.33;;;0.30;;
51467;SDS011;37545;45.302;-122.946;2023-04-04T10:08:37;5.30;;;0.35;;
51467;SDS011;37545;45.302;-122.946;2023-04-04T10:11:08;0.13;;;0.10;;
51467;SDS011;37545;45.302;-122.946;2023-04-04T10:13:37;2.10;;;0.55;;
51467;SDS011;37545;45.302;-122.946;2023-04-04T10:16:08;0.10;;;0.10;;
51467;SDS011;37545;45.302;-122.946;2023-04-04T10:18:37;0.28;;;0.20;;
51467;SDS011;37545;45.302;-122.946;2023-04-04T10:21:07;0.43;;;0.20;;
51467;SDS011;37545;45.302;-122.946;2023-04-04T10:23:36;2.35;;;0.73;;
51467;SDS011;37545;45.302;-122.946;2023-04-04T10:26:05;4.00;;;0.80;;
51467;SDS011;37545;45.302;-122.946;2023-04-04T10:28:33;0.77;;;0.15;;
51467;SDS011;37545;45.302;-122.946;2023-04-04T10:31:04;0.95;;;0.80;;
51467;SDS011;37545;45.302;-122.946;2023-04-04T10:33:38;1.52;;;0.50;;
51467;SDS011;37545;45.302;-122.946;2023-04-04T10:36:15;3.47;;;0.60;;
51467;SDS011;37545;45.302;-122.946;2023-04-04T10:38:53;0.57;;;0.30;;
51467;SDS011;37545;45.302;-122.946;2023-04-04T10:41:29;2.22;;;0.80;;
51467;SDS011;37545;45.302;-122.946;2023-04-04T10:43:59;1.35;;;0.50;;
51467;SDS011;37545;45.302;-122.946;2023-04-04T10:46:36;1.05;;;0.25;;
51467;SDS011;37545;45.302;-122.946;2023-04-04T10:49:08;1.15;;;0.45;;
51467;SDS011;37545;45.302;-122.946;2023-04-04T10:51:40;0.15;;;0.10;;
51467;SDS011;37545;45.302;-122.946;2023-04-04T10:54:10;1.60;;;0.40;;
51467;SDS011;37545;45.302;-122.946;2023-04-04T10:56:40;2.28;;;1.02;;
51467;SDS011;37545;45.302;-122.946;2023-04-04T10:59:10;2.83;;;0.57;;
51467;SDS011;37545;45.302;-122.946;2023-04-04T11:01:49;1.77;;;0.35;;
51467;SDS011;37545;45.302;-122.946;2023-04-04T11:04:27;0.90;;;0.32;;
51467;SDS011;37545;45.302;-122.946;2023-04-04T11:07:10;1.35;;;0.50;;
51467;SDS011;37545;45.302;-122.946;2023-04-04T11:09:49;2.08;;;0.28;;
51467;SDS011;37545;45.302;-122.946;2023-04-04T11:12:26;0.30;;;0.30;;
51467;SDS011;37545;45.302;-122.946;2023-04-04T11:15:07;0.65;;;0.30;;
51467;SDS011;37545;45.302;-122.946;2023-04-04T11:17:44;3.70;;;0.40;;
51467;SDS011;37545;45.302;-122.946;2023-04-04T11:20:19;1.02;;;0.32;;
51467;SDS011;37545;45.302;-122.946;2023-04-04T11:22:50;5.00;;;0.60;;
51467;SDS011;37545;45.302;-122.946;2023-04-04T11:25:33;2.38;;;0.28;;
51467;SDS011;37545;45.302;-122.946;2023-04-04T11:28:04;1.65;;;0.43;;
51467;SDS011;37545;45.302;-122.946;2023-04-04T11:30:38;0.35;;;0.28;;
51467;SDS011;37545;45.302;-122.946;2023-04-04T11:33:10;0.60;;;0.40;;
51467;SDS011;37545;45.302;-122.946;2023-04-04T11:35:40;3.58;;;0.68;;
51467;SDS011;37545;45.302;-122.946;2023-04-04T11:38:15;0.70;;;0.35;;
51467;SDS011;37545;45.302;-122.946;2023-04-04T11:40:51;4.32;;;0.82;;
51467;SDS011;37545;45.302;-122.946;2023-04-04T11:43:20;1.17;;;0.70;;
51467;SDS011;37545;45.302;-122.946;2023-04-04T11:45:50;1.70;;;0.28;;
51467;SDS011;37545;45.302;-122.946;2023-04-04T11:48:20;5.68;;;0.50;;
51467;SDS011;37545;45.302;-122.946;2023-04-04T11:50:50;2.80;;;0.40;;
51467;SDS011;37545;45.302;-122.946;2023-04-04T11:53:22;1.83;;;0.40;;
51467;SDS011;37545;45.302;-122.946;2023-04-04T11:55:50;0.32;;;0.28;;
51467;SDS011;37545;45.302;-122.946;2023-04-04T11:58:21;3.30;;;0.90;;
51467;SDS011;37545;45.302;-122.946;2023-04-04T12:00:50;0.17;;;0.17;;
51467;SDS011;37545;45.302;-122.946;2023-04-04T12:03:18;1.77;;;0.30;;
51467;SDS011;37545;45.302;-122.946;2023-04-04T12:05:48;0.45;;;0.30;;
51467;SDS011;37545;45.302;-122.946;2023-04-04T12:08:17;3.22;;;0.43;;
51467;SDS011;37545;45.302;-122.946;2023-04-04T12:10:50;0.30;;;0.20;;
51467;SDS011;37545;45.302;-122.946;2023-04-04T12:13:19;0.10;;;0.10;;
51467;SDS011;37545;45.302;-122.946;2023-04-04T12:15:47;1.55;;;0.38;;
51467;SDS011;37545;45.302;-122.946;2023-04-04T12:18:19;0.73;;;0.20;;
51467;SDS011;37545;45.302;-122.946;2023-04-04T12:20:49;1.85;;;0.25;;
51467;SDS011;37545;45.302;-122.946;2023-04-04T12:23:18;1.55;;;0.50;;
51467;SDS011;37545;45.302;-122.946;2023-04-04T12:25:47;1.73;;;0.73;;
51467;SDS011;37545;45.302;-122.946;2023-04-04T12:28:20;1.70;;;0.75;;
51467;SDS011;37545;45.302;-122.946;2023-04-04T12:30:50;2.47;;;0.55;;
51467;SDS011;37545;45.302;-122.946;2023-04-04T12:33:19;2.35;;;0.40;;
51467;SDS011;37545;45.302;-122.946;2023-04-04T12:35:51;0.70;;;0.50;;
51467;SDS011;37545;45.302;-122.946;2023-04-04T12:38:28;4.28;;;1.35;;
51467;SDS011;37545;45.302;-122.946;2023-04-04T12:40:56;0.88;;;0.45;;
51467;SDS011;37545;45.302;-122.946;2023-04-04T12:43:33;0.88;;;0.40;;
51467;SDS011;37545;45.302;-122.946;2023-04-04T12:46:08;1.20;;;0.50;;
51467;SDS011;37545;45.302;-122.946;2023-04-04T12:48:37;3.10;;;0.60;;
51467;SDS011;37545;45.302;-122.946;2023-04-04T12:51:05;0.98;;;0.70;;
51467;SDS011;37545;45.302;-122.946;2023-04-04T12:53:34;4.47;;;0.38;;
51467;SDS011;37545;45.302;-122.946;2023-04-04T12:56:17;4.40;;;0.73;;
51467;SDS011;37545;45.302;-122.946;2023-04-04T12:58:48;1.48;;;0.52;;
51467;SDS011;37545;45.302;-122.946;2023-04-04T13:01:17;0.90;;;0.50;;
51467;SDS011;37545;45.302;-122.946;2023-04-04T13:03:48;0.52;;;0.30;;
51467;SDS011;37545;45.302;-122.946;2023-04-04T13:06:16;0.28;;;0.20;;
51467;SDS011;37545;45.302;-122.946;2023-04-04T13:08:50;2.78;;;0.30;;
51467;SDS011;37545;45.302;-122.946;2023-04-04T13:11:19;2.13;;;0.30;;
51467;SDS011;37545;45.302;-122.946;2023-04-04T13:13:58;1.30;;;0.80;;
51467;SDS011;37545;45.302;-122.946;2023-04-04T13:16:28;1.00;;;0.50;;
51467;SDS011;37545;45.302;-122.946;2023-04-04T13:18:58;1.33;;;0.80;;
51467;SDS011;37545;45.302;-122.946;2023-04-04T13:21:28;1.08;;;0.40;;
51467;SDS011;37545;45.302;-122.946;2023-04-04T13:23:57;4.03;;;0.52;;
51467;SDS011;37545;45.302;-122.946;2023-04-04T13:26:25;0.30;;;0.30;;
51467;SDS011;37545;45.302;-122.946;2023-04-04T13:28:55;1.08;;;0.40;;
51467;SDS011;37545;45.302;-122.946;2023-04-04T13:31:24;3.17;;;0.65;;
51467;SDS011;37545;45.302;-122.946;2023-04-04T13:33:52;1.05;;;0.40;;
51467;SDS011;37545;45.302;-122.946;2023-04-04T13:36:21;3.05;;;0.55;;
51467;SDS011;37545;45.302;-122.946;2023-04-04T13:38:49;0.77;;;0.35;;
51467;SDS011;37545;45.302;-122.946;2023-04-04T13:41:18;2.42;;;0.50;;
51467;SDS011;37545;45.302;-122.946;2023-04-04T13:43:46;4.78;;;0.60;;
51467;SDS011;37545;45.302;-122.946;2023-04-04T13:46:16;1.85;;;0.60;;
51467;SDS011;37545;45.302;-122.946;2023-04-04T13:48:45;2.65;;;0.57;;
51467;SDS011;37545;45.302;-122.946;2023-04-04T13:51:13;3.30;;;0.57;;
51467;SDS011;37545;45.302;-122.946;2023-04-04T13:53:42;0.32;;;0.22;;
51467;SDS011;37545;45.302;-122.946;2023-04-04T13:56:11;1.65;;;0.32;;
51467;SDS011;37545;45.302;-122.946;2023-04-04T13:58:39;1.65;;;0.70;;
51467;SDS011;37545;45.302;-122.946;2023-04-04T14:01:08;0.32;;;0.20;;
51467;SDS011;37545;45.302;-122.946;2023-04-04T14:03:38;0.57;;;0.20;;
51467;SDS011;37545;45.302;-122.946;2023-04-04T14:06:07;1.60;;;0.70;;
51467;SDS011;37545;45.302;-122.946;2023-04-04T14:08:35;0.25;;;0.22;;
51467;SDS011;37545;45.302;-122.946;2023-04-04T14:11:04;3.33;;;0.40;;
51467;SDS011;37545;45.302;-122.946;2023-04-04T14:13:32;1.80;;;0.40;;
51467;SDS011;37545;45.302;-122.946;2023-04-04T14:16:02;1.95;;;0.57;;
51467;SDS011;37545;45.302;-122.946;2023-04-04T14:18:31;5.07;;;1.02;;
51467;SDS011;37545;45.302;-122.946;2023-04-04T14:21:01;2.03;;;0.73;;
51467;SDS011;37545;45.302;-122.946;2023-04-04T14:23:30;1.70;;;0.65;;
51467;SDS011;37545;45.302;-122.946;2023-04-04T14:25:58;1.55;;;0.55;;
51467;SDS011;37545;45.302;-122.946;2023-04-04T14:28:27;3.90;;;0.80;;